createdAt,value
2019-02-04T00:00:41.438Z,0.00
2019-02-04T00:03:13.064Z,-0.10
2019-02-04T00:05:41.518Z,-0.10
2019-02-04T00:08:09.961Z,-0.10
2019-02-04T00:10:38.670Z,-0.10
2019-02-04T00:13:07.608Z,-0.20
2019-02-04T00:15:36.285Z,-0.10
2019-02-04T00:18:06.135Z,-0.10
2019-02-04T00:20:34.655Z,-0.20
2019-02-04T00:23:03.238Z,-0.10
2019-02-04T00:25:31.854Z,-0.20
2019-02-04T00:28:00.318Z,-0.20
2019-02-04T00:30:29.096Z,-0.10
2019-02-04T00:32:57.692Z,-0.10
2019-02-04T00:35:26.205Z,-0.10
2019-02-04T00:37:54.854Z,-0.20
2019-02-04T00:40:26.040Z,-0.20
2019-02-04T00:42:54.622Z,-0.30
2019-02-04T00:45:23.093Z,-0.30
2019-02-04T00:47:51.688Z,-0.30
2019-02-04T00:50:21.963Z,-0.30
2019-02-04T00:52:50.408Z,-0.30
2019-02-04T00:55:18.919Z,-0.30
2019-02-04T00:57:47.455Z,-0.30
2019-02-04T01:00:24.112Z,-0.40
2019-02-04T01:02:52.574Z,-0.40
2019-02-04T01:05:21.627Z,-0.40
2019-02-04T01:07:50.246Z,-0.40
2019-02-04T01:10:21.764Z,-0.40
2019-02-04T01:12:50.306Z,-0.40
2019-02-04T01:15:18.755Z,-0.40
2019-02-04T01:17:47.201Z,-0.40
2019-02-04T01:20:18.757Z,-0.40
2019-02-04T01:22:47.215Z,-0.40
2019-02-04T01:25:15.896Z,-0.50
2019-02-04T01:27:44.368Z,-0.50
2019-02-04T01:30:15.750Z,-0.50
2019-02-04T01:32:44.269Z,-0.50
2019-02-04T01:35:12.865Z,-0.50
2019-02-04T01:37:41.478Z,-0.60
2019-02-04T01:40:15.946Z,-0.60
2019-02-04T01:42:44.456Z,-0.60
2019-02-04T01:45:13.030Z,-0.60
2019-02-04T01:47:41.493Z,-0.60
2019-02-04T01:50:13.217Z,-0.60
2019-02-04T01:52:41.860Z,-0.60
2019-02-04T01:55:12.143Z,-0.60
2019-02-04T01:57:40.594Z,-0.60
2019-02-04T02:00:14.882Z,-0.60
2019-02-04T02:02:43.333Z,-0.60
2019-02-04T02:05:12.058Z,-0.60
2019-02-04T02:07:40.526Z,-0.60
2019-02-04T02:10:12.010Z,-0.60
2019-02-04T02:12:40.469Z,-0.60
2019-02-04T02:15:09.317Z,-0.60
2019-02-04T02:17:37.798Z,-0.60
2019-02-04T02:20:09.673Z,-0.60
2019-02-04T02:22:38.145Z,-0.60
2019-02-04T02:25:07.440Z,-0.70
2019-02-04T02:27:35.904Z,-0.70
2019-02-04T02:30:07.459Z,-0.70
2019-02-04T02:32:36.299Z,-0.70
2019-02-04T02:35:06.591Z,-0.70
2019-02-04T02:37:35.095Z,-0.70
2019-02-04T02:40:06.971Z,-0.70
2019-02-04T02:42:35.432Z,-0.70
2019-02-04T02:45:07.111Z,-0.70
2019-02-04T02:47:38.369Z,-0.70
2019-02-04T02:50:09.663Z,-0.70
2019-02-04T02:52:38.129Z,-0.60
2019-02-04T02:55:09.792Z,-0.60
2019-02-04T02:57:38.308Z,-0.60
2019-02-04T03:00:13.086Z,-0.60
2019-02-04T03:02:41.723Z,-0.60
2019-02-04T03:05:12.899Z,-0.60
2019-02-04T03:07:41.630Z,-0.50
2019-02-04T03:10:13.279Z,-0.50
2019-02-04T03:12:41.742Z,-0.40
2019-02-04T03:15:11.589Z,-0.40
2019-02-04T03:17:51.541Z,-0.40
2019-02-04T03:20:11.947Z,-0.40
2019-02-04T03:22:40.532Z,-0.40
2019-02-04T03:25:11.798Z,-0.30
2019-02-04T03:27:40.621Z,-0.30
2019-02-04T03:30:12.249Z,-0.30
2019-02-04T03:32:40.692Z,-0.30
2019-02-04T03:35:09.239Z,-0.20
2019-02-04T03:37:37.759Z,-0.20
2019-02-04T03:40:09.344Z,-0.20
2019-02-04T03:42:38.188Z,-0.20
2019-02-04T03:45:08.603Z,-0.20
2019-02-04T03:47:37.051Z,-0.20
2019-02-04T03:50:08.415Z,-0.20
2019-02-04T03:52:37.002Z,-0.10
2019-02-04T03:55:07.708Z,-0.10
2019-02-04T03:57:36.158Z,-0.10
2019-02-04T04:00:07.827Z,-0.10
2019-02-04T04:02:36.438Z,-0.10
2019-02-04T04:05:05.311Z,-0.10
2019-02-04T04:07:33.763Z,-0.10
2019-02-04T04:10:02.497Z,-0.10
2019-02-04T04:12:31.020Z,-0.10
2019-02-04T04:14:59.483Z,-0.20
2019-02-04T04:17:27.931Z,-0.10
2019-02-04T04:19:56.406Z,-0.10
2019-02-04T04:22:24.842Z,-0.20
2019-02-04T04:24:53.594Z,-0.10
2019-02-04T04:27:22.131Z,-0.20
2019-02-04T04:29:50.694Z,-0.20
2019-02-04T04:32:19.168Z,-0.10
2019-02-04T04:34:47.677Z,0.00
2019-02-04T04:37:16.146Z,0.00
2019-02-04T04:39:44.887Z,-0.40
2019-02-04T04:42:13.320Z,0.10
2019-02-04T04:44:41.755Z,0.00
2019-02-04T04:47:10.226Z,0.00
2019-02-04T04:49:38.733Z,0.00
2019-02-04T04:52:07.196Z,-0.10
2019-02-04T04:54:35.664Z,-0.10
2019-02-04T04:57:04.297Z,-0.20
2019-02-04T04:59:32.844Z,-0.20
2019-02-04T05:02:01.364Z,-0.20
2019-02-04T05:04:29.878Z,-0.20
2019-02-04T05:07:00.621Z,-0.20
2019-02-04T05:09:28.499Z,-0.10
2019-02-04T05:11:57.214Z,-0.10
2019-02-04T05:14:25.665Z,-0.20
2019-02-04T05:16:54.110Z,-0.30
2019-02-04T05:19:22.569Z,-0.40
2019-02-04T05:21:51.048Z,-0.40
2019-02-04T05:24:19.638Z,-0.40
2019-02-04T05:26:48.372Z,-0.40
2019-02-04T05:29:16.899Z,-0.40
2019-02-04T05:31:45.507Z,-0.50
2019-02-04T05:34:14.066Z,-0.60
2019-02-04T05:36:42.575Z,-0.60
2019-02-04T05:39:11.040Z,-0.60
2019-02-04T05:41:39.767Z,-0.60
2019-02-04T05:44:08.340Z,-0.50
2019-02-04T05:46:36.831Z,-0.50
2019-02-04T05:49:05.292Z,-0.40
2019-02-04T05:51:33.779Z,-0.30
2019-02-04T05:54:02.255Z,-0.30
2019-02-04T05:56:31.066Z,-0.40
2019-02-04T05:58:59.633Z,-0.40
2019-02-04T06:01:28.141Z,-0.40
2019-02-04T06:03:56.603Z,-0.40
2019-02-04T06:06:25.134Z,-0.50
2019-02-04T06:08:53.661Z,-0.50
2019-02-04T06:11:22.194Z,-0.50
2019-02-04T06:13:50.662Z,-0.60
2019-02-04T06:16:19.189Z,-0.60
2019-02-04T06:18:47.698Z,-0.50
2019-02-04T06:21:16.161Z,-0.60
2019-02-04T06:23:44.614Z,-0.40
2019-02-04T06:26:13.152Z,-0.50
2019-02-04T06:28:41.633Z,-0.60
2019-02-04T06:31:10.112Z,-0.60
2019-02-04T06:33:38.557Z,-0.60
2019-02-04T06:36:07.014Z,-0.60
2019-02-04T06:38:35.502Z,-0.70
2019-02-04T06:41:04.027Z,-0.70
2019-02-04T06:43:32.747Z,-0.70
2019-02-04T06:46:01.229Z,-0.60
2019-02-04T06:48:29.680Z,-0.60
2019-02-04T06:50:58.224Z,-0.60
2019-02-04T06:53:26.694Z,-0.60
2019-02-04T06:55:55.229Z,-0.50
2019-02-04T06:58:24.041Z,-0.40
2019-02-04T07:00:52.556Z,-0.40
2019-02-04T07:03:20.991Z,-0.30
2019-02-04T07:05:49.481Z,-0.20
2019-02-04T07:08:17.998Z,-0.10
2019-02-04T07:10:46.449Z,-0.10
2019-02-04T07:13:14.982Z,0.00
2019-02-04T07:15:43.414Z,0.00
2019-02-04T07:18:11.929Z,0.10
2019-02-04T07:20:40.384Z,0.20
2019-02-04T07:23:08.912Z,0.30
2019-02-04T07:25:37.364Z,0.40
2019-02-04T07:28:05.820Z,1.50
2019-02-04T07:30:34.560Z,0.50
2019-02-04T07:33:03.040Z,0.50
2019-02-04T07:35:31.683Z,0.50
2019-02-04T07:38:00.187Z,0.60
2019-02-04T07:40:33.301Z,0.60
2019-02-04T07:43:01.779Z,0.60
2019-02-04T07:45:30.646Z,0.50
2019-02-04T07:47:59.211Z,0.40
2019-02-04T07:50:27.641Z,0.40
2019-02-04T07:52:56.331Z,0.40
2019-02-04T07:55:24.774Z,0.40
2019-02-04T07:57:53.219Z,0.30
2019-02-04T08:00:23.949Z,0.30
2019-02-04T08:02:52.475Z,0.30
2019-02-04T08:05:20.923Z,0.30
2019-02-04T08:07:49.525Z,0.40
2019-02-04T08:10:18.307Z,0.60
2019-02-04T08:12:46.799Z,0.60
2019-02-04T08:15:18.171Z,0.70
2019-02-04T08:17:46.622Z,0.80
2019-02-04T08:20:15.170Z,0.80
2019-02-04T08:22:43.633Z,0.90
2019-02-04T08:25:14.642Z,1.00
2019-02-04T08:27:43.273Z,1.10
2019-02-04T08:30:37.995Z,1.20
2019-02-04T08:33:05.800Z,1.10
2019-02-04T08:35:34.416Z,0.90
2019-02-04T08:38:03.036Z,0.90
2019-02-04T08:40:31.599Z,0.90
2019-02-04T08:43:00.063Z,1.00
2019-02-04T08:45:28.574Z,1.00
2019-02-04T08:47:57.044Z,1.10
2019-02-04T08:50:27.107Z,1.10
2019-02-04T08:52:55.740Z,1.30
2019-02-04T08:55:24.277Z,1.30
2019-02-04T08:57:53.229Z,1.30
2019-02-04T09:00:25.923Z,1.30
2019-02-04T09:02:54.468Z,1.40
2019-02-04T09:05:23.729Z,1.40
2019-02-04T09:07:52.519Z,1.50
2019-02-04T09:10:29.405Z,1.70
2019-02-04T09:12:58.078Z,1.70
2019-02-04T09:15:26.666Z,1.70
2019-02-04T09:17:55.292Z,1.80
2019-02-04T09:20:23.857Z,1.80
2019-02-04T09:22:52.380Z,1.80
2019-02-04T09:25:23.564Z,1.90
2019-02-04T09:27:52.471Z,1.90
2019-02-04T09:30:27.590Z,1.90
2019-02-04T09:32:57.660Z,2.00
2019-02-04T09:35:26.407Z,2.10
2019-02-04T09:37:54.859Z,2.10
2019-02-04T09:40:28.792Z,2.20
2019-02-04T09:42:57.307Z,2.30
2019-02-04T09:45:27.750Z,2.30
2019-02-04T09:47:55.999Z,2.30
2019-02-04T09:50:27.311Z,2.40
2019-02-04T09:52:55.832Z,2.40
2019-02-04T09:55:27.295Z,2.60
2019-02-04T09:57:55.778Z,2.70
2019-02-04T10:00:32.756Z,2.80
2019-02-04T10:03:01.240Z,2.80
2019-02-04T10:05:29.941Z,2.80
2019-02-04T10:07:58.447Z,2.90
2019-02-04T10:10:31.298Z,2.90
2019-02-04T10:12:59.983Z,3.00
2019-02-04T10:15:45.918Z,3.00
2019-02-04T10:18:14.843Z,3.10
2019-02-04T10:20:43.356Z,3.10
2019-02-04T10:23:11.939Z,3.20
2019-02-04T10:25:43.159Z,3.30
2019-02-04T10:28:13.508Z,3.30
2019-02-04T10:30:42.060Z,3.40
2019-02-04T10:33:10.567Z,3.60
2019-02-04T10:35:39.100Z,3.70
2019-02-04T10:38:07.830Z,3.70
2019-02-04T10:40:36.452Z,3.80
2019-02-04T10:43:05.213Z,3.80
2019-02-04T10:45:33.727Z,3.90
2019-02-04T10:48:02.236Z,3.90
2019-02-04T10:50:46.110Z,4.00
2019-02-04T10:53:12.529Z,4.00
2019-02-04T10:55:41.055Z,3.90
2019-02-04T10:58:11.914Z,4.00
2019-02-04T11:00:40.605Z,4.00
2019-02-04T11:03:09.142Z,4.10
2019-02-04T11:05:39.492Z,4.20
2019-02-04T11:08:10.286Z,4.10
2019-02-04T11:10:39.087Z,4.20
2019-02-04T11:13:09.833Z,4.40
2019-02-04T11:15:38.447Z,4.40
2019-02-04T11:18:07.703Z,4.40
2019-02-04T11:20:36.593Z,4.40
2019-02-04T11:23:06.400Z,4.50
2019-02-04T11:25:34.938Z,4.70
2019-02-04T11:28:04.182Z,4.80
2019-02-04T11:30:35.864Z,4.70
2019-02-04T11:33:04.957Z,4.90
2019-02-04T11:35:33.576Z,4.90
2019-02-04T11:38:02.192Z,4.90
2019-02-04T11:40:32.766Z,5.00
2019-02-04T11:43:01.213Z,5.00
2019-02-04T11:45:30.233Z,4.90
2019-02-04T11:47:58.871Z,4.90
2019-02-04T11:50:27.465Z,4.80
2019-02-04T11:52:55.906Z,4.80
2019-02-04T11:55:24.430Z,4.90
2019-02-04T11:57:52.874Z,5.00
2019-02-04T12:00:24.602Z,5.00
2019-02-04T12:02:53.961Z,5.10
2019-02-04T12:05:23.631Z,5.20
2019-02-04T12:07:52.717Z,5.20
2019-02-04T12:10:32.723Z,5.20
2019-02-04T12:13:01.460Z,5.10
2019-02-04T12:15:29.906Z,5.20
2019-02-04T12:17:58.365Z,5.30
2019-02-04T12:20:26.867Z,5.30
2019-02-04T12:22:55.704Z,5.30
2019-02-04T12:25:28.225Z,5.30
2019-02-04T12:27:57.529Z,5.40
2019-02-04T12:30:37.056Z,5.50
2019-02-04T12:33:07.422Z,5.60
2019-02-04T12:35:35.965Z,5.60
2019-02-04T12:38:04.569Z,5.70
2019-02-04T12:40:33.469Z,5.80
2019-02-04T12:43:01.949Z,6.00
2019-02-04T12:45:35.921Z,5.90
2019-02-04T12:48:05.165Z,6.00
2019-02-04T12:50:33.689Z,6.10
2019-02-04T12:53:02.200Z,6.10
2019-02-04T12:55:32.362Z,6.20
2019-02-04T12:58:00.902Z,6.00
2019-02-04T13:00:30.860Z,6.00
2019-02-04T13:02:59.322Z,6.00
2019-02-04T13:05:36.259Z,6.00
2019-02-04T13:08:07.377Z,5.90
2019-02-04T13:10:35.991Z,5.80
2019-02-04T13:13:05.364Z,5.80
2019-02-04T13:15:33.903Z,5.90
2019-02-04T13:18:02.344Z,5.90
2019-02-04T13:20:30.807Z,5.90
2019-02-04T13:22:59.618Z,5.80
2019-02-04T13:25:31.158Z,5.80
2019-02-04T13:27:59.666Z,5.80
2019-02-04T13:30:29.335Z,5.80
2019-02-04T13:32:57.984Z,5.80
2019-02-04T13:35:26.690Z,5.70
2019-02-04T13:37:55.582Z,5.70
2019-02-04T13:40:30.862Z,5.70
2019-02-04T13:42:59.434Z,5.70
2019-02-04T13:45:28.433Z,5.70
2019-02-04T13:47:56.862Z,5.70
2019-02-04T13:50:25.604Z,5.70
2019-02-04T13:52:54.487Z,5.60
2019-02-04T13:55:34.708Z,5.60
2019-02-04T13:58:03.290Z,5.60
2019-02-04T14:00:31.817Z,5.50
2019-02-04T14:03:01.177Z,5.60
2019-02-04T14:05:31.761Z,6.00
2019-02-04T14:08:00.528Z,5.60
2019-02-04T14:10:40.439Z,5.50
2019-02-04T14:13:09.021Z,5.40
2019-02-04T14:15:38.896Z,5.30
2019-02-04T14:18:08.251Z,5.30
2019-02-04T14:20:37.507Z,5.30
2019-02-04T14:23:06.227Z,5.30
2019-02-04T14:25:34.701Z,5.30
2019-02-04T14:28:03.880Z,5.20
2019-02-04T14:30:36.071Z,5.30
2019-02-04T14:33:05.070Z,5.30
2019-02-04T14:35:33.503Z,5.30
2019-02-04T14:38:02.197Z,5.30
2019-02-04T14:40:30.878Z,5.30
2019-02-04T14:43:02.919Z,5.20
2019-02-04T14:45:49.174Z,5.20
2019-02-04T14:48:39.956Z,5.10
2019-02-04T14:51:28.070Z,5.10
2019-02-04T14:54:19.877Z,5.10
2019-02-04T14:57:11.793Z,5.00
2019-02-04T14:59:43.775Z,4.90
2019-02-04T15:02:15.322Z,4.90
2019-02-04T15:04:58.427Z,4.80
2019-02-04T15:07:46.173Z,4.70
2019-02-04T15:10:26.387Z,4.70
2019-02-04T15:13:09.809Z,5.40
2019-02-04T15:15:47.044Z,4.70
2019-02-04T15:18:35.083Z,4.70
2019-02-04T15:21:24.329Z,4.60
2019-02-04T15:24:12.053Z,4.60
2019-02-04T15:27:15.147Z,4.60
2019-02-04T15:29:52.948Z,4.60
2019-02-04T15:32:39.325Z,4.50
2019-02-04T15:35:22.484Z,4.50
2019-02-04T15:38:03.199Z,4.40
2019-02-04T15:40:40.824Z,4.30
2019-02-04T15:43:32.887Z,4.30
2019-02-04T15:46:15.887Z,4.20
2019-02-04T15:48:50.219Z,4.20
2019-02-04T15:51:21.767Z,4.20
2019-02-04T15:53:50.695Z,4.10
2019-02-04T15:56:19.231Z,4.00
2019-02-04T15:58:47.698Z,4.00
2019-02-04T16:01:16.143Z,4.00
2019-02-04T16:03:44.809Z,3.90
2019-02-04T16:06:13.393Z,3.90
2019-02-04T16:08:41.930Z,3.80
2019-02-04T16:11:10.384Z,3.70
2019-02-04T16:13:38.839Z,3.60
2019-02-04T16:16:07.281Z,3.60
2019-02-04T16:18:35.734Z,3.50
2019-02-04T16:21:04.699Z,3.40
2019-02-04T16:23:33.142Z,3.40
2019-02-04T16:26:02.029Z,3.30
2019-02-04T16:28:30.471Z,3.30
2019-02-04T16:30:59.004Z,3.20
2019-02-04T16:33:27.439Z,3.20
2019-02-04T16:35:55.903Z,3.10
2019-02-04T16:38:24.403Z,3.10
2019-02-04T16:40:52.854Z,3.10
2019-02-04T16:43:21.299Z,3.00
2019-02-04T16:45:49.833Z,2.90
2019-02-04T16:48:18.413Z,2.90
2019-02-04T16:51:03.445Z,2.80
2019-02-04T16:53:17.026Z,2.80
2019-02-04T16:55:45.493Z,2.80
2019-02-04T16:58:13.996Z,2.80
2019-02-04T17:00:42.531Z,2.70
2019-02-04T17:03:10.974Z,2.70
2019-02-04T17:05:39.503Z,2.70
2019-02-04T17:08:08.140Z,2.70
2019-02-04T17:10:36.808Z,2.60
2019-02-04T17:13:05.682Z,2.50
2019-02-04T17:15:34.246Z,2.50
2019-02-04T17:18:02.749Z,2.50
2019-02-04T17:20:32.081Z,2.50
2019-02-04T17:23:00.850Z,2.50
2019-02-04T17:25:29.396Z,2.40
2019-02-04T17:27:58.017Z,2.40
2019-02-04T17:30:26.941Z,2.40
2019-02-04T17:32:55.370Z,2.40
2019-02-04T17:35:24.065Z,2.40
2019-02-04T17:37:52.508Z,2.30
2019-02-04T17:40:22.910Z,2.30
2019-02-04T17:42:53.089Z,2.30
2019-02-04T17:45:21.637Z,2.30
2019-02-04T17:47:51.686Z,2.20
2019-02-04T17:50:21.421Z,2.20
2019-02-04T17:52:50.111Z,2.20
2019-02-04T17:55:21.828Z,2.20
2019-02-04T17:57:50.744Z,2.10
2019-02-04T18:00:27.815Z,2.10
2019-02-04T18:02:56.458Z,2.10
2019-02-04T18:05:25.172Z,2.00
2019-02-04T18:07:53.712Z,2.10
2019-02-04T18:10:22.337Z,2.10
2019-02-04T18:12:51.148Z,2.10
2019-02-04T18:15:23.873Z,2.10
2019-02-04T18:17:52.546Z,2.00
2019-02-04T18:20:21.102Z,2.00
2019-02-04T18:22:49.561Z,2.00
2019-02-04T18:25:19.511Z,2.00
2019-02-04T18:27:48.127Z,2.00
2019-02-04T18:30:19.997Z,2.00
2019-02-04T18:32:48.449Z,2.10
2019-02-04T18:35:18.014Z,2.00
2019-02-04T18:37:47.006Z,2.00
2019-02-04T18:40:17.886Z,2.10
2019-02-04T18:42:47.098Z,2.10
2019-02-04T18:45:18.768Z,2.10
2019-02-04T18:47:47.306Z,2.10
2019-02-04T18:50:17.553Z,2.10
2019-02-04T18:52:46.458Z,2.10
2019-02-04T18:55:17.462Z,2.00
2019-02-04T18:57:46.005Z,2.10
2019-02-04T19:00:17.910Z,2.10
2019-02-04T19:02:46.405Z,2.10
2019-02-04T19:05:15.275Z,2.00
2019-02-04T19:07:43.729Z,2.00
2019-02-04T19:10:15.068Z,2.00
2019-02-04T19:12:43.514Z,2.00
2019-02-04T19:15:14.899Z,2.00
2019-02-04T19:17:43.501Z,2.00
2019-02-04T19:20:15.014Z,2.00
2019-02-04T19:22:43.465Z,2.00
2019-02-04T19:25:14.527Z,1.90
2019-02-04T19:27:43.427Z,1.80
2019-02-04T19:30:15.007Z,1.90
2019-02-04T19:32:43.511Z,1.90
2019-02-04T19:35:12.357Z,1.80
2019-02-04T19:37:40.816Z,1.80
2019-02-04T19:40:14.687Z,1.80
2019-02-04T19:42:43.222Z,1.80
2019-02-04T19:45:20.184Z,1.80
2019-02-04T19:47:49.136Z,1.80
2019-02-04T19:50:26.284Z,1.80
2019-02-04T19:52:54.803Z,1.80
2019-02-04T19:55:23.721Z,1.80
2019-02-04T19:57:52.201Z,1.80
2019-02-04T20:00:22.084Z,1.70
2019-02-04T20:02:51.875Z,1.70
2019-02-04T20:05:25.088Z,1.70
2019-02-04T20:07:53.567Z,1.70
2019-02-04T20:10:24.828Z,1.70
2019-02-04T20:12:53.373Z,1.70
2019-02-04T20:15:24.383Z,1.70
2019-02-04T20:17:53.020Z,1.70
2019-02-04T20:20:21.636Z,1.70
2019-02-04T20:22:50.160Z,1.70
2019-02-04T20:25:21.514Z,1.70
2019-02-04T20:27:49.976Z,1.70
2019-02-04T20:30:23.762Z,1.70
2019-02-04T20:32:52.232Z,1.60
2019-02-04T20:35:20.746Z,1.70
2019-02-04T20:37:49.267Z,1.60
2019-02-04T20:40:24.808Z,1.60
2019-02-04T20:42:53.430Z,1.50
2019-02-04T20:45:22.470Z,1.50
2019-02-04T20:47:51.825Z,1.50
2019-02-04T20:50:31.645Z,1.60
2019-02-04T20:53:00.174Z,1.70
2019-02-04T20:55:28.755Z,1.60
2019-02-04T20:57:57.692Z,1.60
2019-02-04T21:00:28.246Z,1.70
2019-02-04T21:02:56.888Z,1.60
2019-02-04T21:05:25.325Z,1.60
2019-02-04T21:07:53.894Z,1.50
2019-02-04T21:10:25.442Z,1.50
2019-02-04T21:12:54.394Z,1.50
2019-02-04T21:15:23.674Z,1.50
2019-02-04T21:17:52.238Z,1.50
2019-02-04T21:20:22.735Z,1.40
2019-02-04T21:22:51.249Z,1.40
2019-02-04T21:25:19.722Z,1.40
2019-02-04T21:27:48.695Z,1.50
2019-02-04T21:30:22.991Z,1.50
2019-02-04T21:32:51.589Z,1.50
2019-02-04T21:35:21.116Z,1.50
2019-02-04T21:37:49.556Z,1.50
2019-02-04T21:40:19.388Z,1.50
2019-02-04T21:42:48.221Z,1.40
2019-02-04T21:45:18.691Z,1.40
2019-02-04T21:47:47.209Z,1.40
2019-02-04T21:50:17.798Z,1.40
2019-02-04T21:52:46.240Z,1.40
2019-02-04T21:55:15.133Z,1.40
2019-02-04T21:57:44.025Z,1.40
2019-02-04T22:00:15.621Z,1.40
2019-02-04T22:02:44.109Z,1.40
2019-02-04T22:05:15.116Z,1.40
2019-02-04T22:07:43.651Z,1.40
2019-02-04T22:10:17.861Z,1.40
2019-02-04T22:12:46.359Z,1.40
2019-02-04T22:15:14.965Z,1.40
2019-02-04T22:17:43.444Z,1.40
2019-02-04T22:20:14.523Z,1.40
2019-02-04T22:22:43.034Z,1.50
2019-02-04T22:25:19.693Z,1.50
2019-02-04T22:27:44.107Z,1.40
2019-02-04T22:30:24.057Z,1.40
2019-02-04T22:32:52.561Z,1.50
2019-02-04T22:35:21.028Z,1.50
2019-02-04T22:37:49.612Z,1.50
2019-02-04T22:40:26.228Z,1.40
2019-02-04T22:42:55.427Z,1.40
2019-02-04T22:45:24.006Z,1.40
2019-02-04T22:47:53.925Z,1.40
2019-02-04T22:50:24.973Z,1.40
2019-02-04T22:52:53.413Z,1.40
2019-02-04T22:55:31.461Z,1.40
2019-02-04T22:57:52.412Z,1.40
2019-02-04T23:00:50.164Z,1.40
2019-02-04T23:03:21.523Z,1.40
2019-02-04T23:05:50.104Z,1.40
2019-02-04T23:08:18.547Z,1.30
2019-02-04T23:10:47.131Z,1.40
2019-02-04T23:13:15.575Z,1.30
2019-02-04T23:15:44.096Z,1.30
2019-02-04T23:18:12.909Z,1.40
2019-02-04T23:20:41.439Z,1.40
2019-02-04T23:23:09.881Z,1.40
2019-02-04T23:25:43.427Z,1.40
2019-02-04T23:28:08.671Z,1.40
2019-02-04T23:30:37.201Z,1.30
2019-02-04T23:33:06.077Z,1.30
2019-02-04T23:35:34.585Z,1.40
2019-02-04T23:38:03.028Z,1.30
2019-02-04T23:40:31.549Z,1.30
2019-02-04T23:42:59.981Z,1.20
2019-02-04T23:45:28.439Z,1.20
2019-02-04T23:47:57.314Z,1.20
2019-02-04T23:50:25.806Z,1.10
2019-02-04T23:52:54.315Z,1.20
2019-02-04T23:55:22.757Z,1.20
2019-02-04T23:57:51.189Z,1.20
